Time;durP1;ratioP1;P1;durP2;ratioP2;P2;SDS_P1;SDS_P2;PMS_P1;PMS_P2;Temp;Humidity;BMP_temperature;BMP_pressure;BME280_temperature;BME280_humidity;BME280_pressure;Samples;Min_cycle;Max_cycle;Signal;HPM_P1;HPM_P2
2023/01/23 00:00:09;;;;;;;35.38;21.50;;;;;;;1.39;100.00;102619.34;5039827;28;20257;-77
2023/01/23 00:02:37;;;;;;;36.38;20.05;;;;;;;1.39;100.00;102621.06;5026686;28;20041;-79
2023/01/23 00:05:05;;;;;;;38.17;22.05;;;;;;;1.39;100.00;102615.91;5038696;28;20038;-80
2023/01/23 00:07:31;;;;;;;34.80;20.45;;;;;;;1.32;100.00;102612.69;5042703;28;20079;-79
2023/01/23 00:09:58;;;;;;;38.75;22.17;;;;;;;1.35;100.00;102619.47;5044904;28;20092;-80
2023/01/23 00:12:25;;;;;;;36.65;20.77;;;;;;;1.35;100.00;102612.59;5047735;28;20077;-80
2023/01/23 00:14:52;;;;;;;35.42;20.38;;;;;;;1.34;100.00;102623.78;5050876;28;20046;-79
2023/01/23 00:17:18;;;;;;;34.53;21.10;;;;;;;1.36;100.00;102609.13;5044767;28;20241;-81
2023/01/23 00:19:46;;;;;;;35.17;21.58;;;;;;;1.44;100.00;102625.16;5042938;28;20061;-79
2023/01/23 00:22:14;;;;;;;32.88;19.42;;;;;;;1.44;100.00;102626.91;5044158;28;20128;-79
2023/01/23 00:24:40;;;;;;;35.25;20.70;;;;;;;1.41;100.00;102625.28;5035712;28;20411;-78
2023/01/23 00:27:07;;;;;;;34.80;19.95;;;;;;;1.36;100.00;102621.16;5036418;28;20072;-79
2023/01/23 00:29:33;;;;;;;32.90;19.80;;;;;;;1.30;100.00;102627.34;5044043;28;20088;-79
2023/01/23 00:32:00;;;;;;;35.28;20.88;;;;;;;1.33;100.00;102616.94;5037812;28;20148;-79
2023/01/23 00:34:27;;;;;;;37.42;20.42;;;;;;;1.32;100.00;102625.56;5040231;28;20105;-79
2023/01/23 00:36:55;;;;;;;38.03;21.17;;;;;;;1.36;100.00;102619.44;5038873;28;20128;-80
2023/01/23 00:39:22;;;;;;;33.40;19.17;;;;;;;1.33;100.00;102619.53;5034335;28;20088;-79
2023/01/23 00:41:50;;;;;;;38.10;21.30;;;;;;;1.30;100.00;102625.63;5040051;28;20182;-79
2023/01/23 00:44:16;;;;;;;34.85;20.60;;;;;;;1.27;100.00;102624.88;5040528;28;20113;-82
2023/01/23 00:46:43;;;;;;;35.28;21.38;;;;;;;1.28;100.00;102622.25;5026784;28;20121;-79
2023/01/23 00:49:10;;;;;;;34.85;19.95;;;;;;;1.26;100.00;102624.03;5039773;28;20132;-78
2023/01/23 00:51:36;;;;;;;39.03;20.55;;;;;;;1.29;100.00;102629.09;5041505;28;20080;-79
2023/01/23 00:54:04;;;;;;;37.63;21.67;;;;;;;1.29;100.00;102631.66;5040263;28;20132;-79
2023/01/23 00:56:31;;;;;;;34.67;20.27;;;;;;;1.29;100.00;102630.84;5039251;28;20132;-79
2023/01/23 00:58:58;;;;;;;36.95;21.83;;;;;;;1.31;100.00;102634.22;5037772;28;20140;-80
2023/01/23 01:01:26;;;;;;;34.67;21.80;;;;;;;1.29;100.00;102631.66;5034738;28;20117;-79
2023/01/23 01:03:53;;;;;;;35.55;20.35;;;;;;;1.31;100.00;102644.53;5040757;28;20091;-79
2023/01/23 01:06:20;;;;;;;33.47;20.55;;;;;;;1.31;100.00;102647.09;5041120;28;20045;-79
2023/01/23 01:08:48;;;;;;;37.13;20.48;;;;;;;1.34;100.00;102641.84;5040221;28;20053;-79
2023/01/23 01:11:16;;;;;;;34.03;20.90;;;;;;;1.35;100.00;102624.63;5040258;28;20484;-79
2023/01/23 01:13:42;;;;;;;33.80;20.02;;;;;;;1.31;100.00;102632.47;5023740;28;20125;-79
2023/01/23 01:16:09;;;;;;;36.53;20.42;;;;;;;1.25;100.00;102635.25;5031694;28;20136;-80
2023/01/23 01:18:36;;;;;;;34.33;19.10;;;;;;;1.18;100.00;102640.63;5033047;28;20195;-80
2023/01/23 01:21:06;;;;;;;34.17;19.77;;;;;;;1.20;100.00;102641.44;5040522;28;20085;-80
2023/01/23 01:23:33;;;;;;;35.28;20.77;;;;;;;1.08;100.00;102644.38;5039668;28;20049;-80
2023/01/23 01:26:00;;;;;;;33.90;20.55;;;;;;;1.12;100.00;102643.38;5028707;28;20046;-79
2023/01/23 01:28:30;;;;;;;39.45;21.85;;;;;;;1.19;100.00;102644.88;5026356;28;20119;-78
2023/01/23 01:30:57;;;;;;;37.00;20.98;;;;;;;1.21;100.00;102656.00;5023083;28;20457;-79
2023/01/23 01:33:24;;;;;;;37.45;21.25;;;;;;;1.22;100.00;102655.13;5039803;28;20053;-80
2023/01/23 01:35:51;;;;;;;33.28;18.83;;;;;;;1.20;100.00;102654.31;5040152;28;20128;-80
2023/01/23 01:38:17;;;;;;;36.70;19.70;;;;;;;1.21;100.00;102653.44;5034804;28;20053;-79
2023/01/23 01:40:44;;;;;;;36.47;20.48;;;;;;;1.22;100.00;102655.97;5036228;28;20080;-79
2023/01/23 01:43:19;;;;;;;33.50;20.40;;;;;;;1.19;100.00;102655.22;5039570;28;20109;-80
2023/01/23 01:46:06;;;;;;;31.70;18.65;;;;;;;1.23;100.00;102655.06;5035539;28;20120;-79
2023/01/23 01:48:36;;;;;;;33.63;19.10;;;;;;;1.20;100.00;102662.06;5038792;28;20088;-80
2023/01/23 01:51:09;;;;;;;34.63;19.58;;;;;;;1.25;100.00;102665.34;5028419;28;20567;-80
2023/01/23 01:53:37;;;;;;;34.95;19.98;;;;;;;1.22;100.00;102660.28;5020867;28;20088;-80
2023/01/23 01:56:05;;;;;;;33.67;19.95;;;;;;;1.22;100.00;102663.69;5029727;28;20073;-79
2023/01/23 01:58:31;;;;;;;32.65;19.23;;;;;;;1.22;100.00;102653.38;5024844;28;20137;-80
2023/01/23 02:00:58;;;;;;;35.63;19.00;;;;;;;1.28;100.00;102658.34;5030142;28;20144;-80
2023/01/23 02:03:26;;;;;;;34.38;19.70;;;;;;;1.28;100.00;102654.94;5041441;28;20081;-80
2023/01/23 02:05:53;;;;;;;33.97;20.10;;;;;;;1.22;100.00;102662.84;5041648;28;20110;-79
2023/01/23 02:08:26;;;;;;;31.65;19.05;;;;;;;1.24;100.00;102663.66;5043008;28;20092;-80
2023/01/23 02:10:52;;;;;;;;;;;;;;;1.24;100.00;102668.81;5039493;28;20081;-82
2023/01/23 02:13:23;;;;;;;34.30;20.13;;;;;;;1.22;100.00;102671.44;5028243;28;19932;-80
2023/01/23 02:15:51;;;;;;;35.70;19.95;;;;;;;1.20;100.00;102674.94;5030024;28;20507;-81
2023/01/23 02:18:18;;;;;;;35.58;19.90;;;;;;;1.25;100.00;102670.50;5032878;28;20038;-81
2023/01/23 02:20:47;;;;;;;32.85;19.40;;;;;;;1.27;100.00;102671.28;5040427;28;20049;-79
2023/01/23 02:23:21;;;;;;;34.60;20.70;;;;;;;1.27;100.00;102676.44;5043118;28;20046;-80
2023/01/23 02:26:01;;;;;;;37.38;20.45;;;;;;;1.25;100.00;102665.34;5042724;28;20073;-79
2023/01/23 02:28:38;;;;;;;36.08;19.75;;;;;;;1.23;100.00;102672.28;5042966;28;20132;-80
2023/01/23 02:31:09;;;;;;;32.40;18.85;;;;;;;1.30;100.00;102668.63;5042676;28;20045;-79
2023/01/23 02:33:48;;;;;;;32.97;19.05;;;;;;;1.20;100.00;102678.38;5033568;28;20500;-80
2023/01/23 02:36:17;;;;;;;33.10;18.48;;;;;;;1.25;100.00;102681.66;5034856;28;20083;-80
2023/01/23 02:38:53;;;;;;;36.97;20.60;;;;;;;1.28;100.00;102675.56;5043240;28;20117;-82
2023/01/23 02:41:25;;;;;;;36.95;20.23;;;;;;;1.27;100.00;102671.28;5040082;28;20056;-81
2023/01/23 02:43:54;;;;;;;33.22;19.52;;;;;;;1.26;100.00;102664.44;5041656;28;20132;-81
2023/01/23 02:46:21;;;;;;;35.83;19.65;;;;;;;1.32;100.00;102677.16;5033329;28;20264;-80
2023/01/23 02:48:48;;;;;;;33.42;19.40;;;;;;;1.30;100.00;102674.63;5042625;28;20128;-80
2023/01/23 02:51:16;;;;;;;33.72;19.05;;;;;;;1.30;100.00;102681.53;5031020;28;20073;-80
2023/01/23 02:53:43;;;;;;;32.97;19.00;;;;;;;1.36;100.00;102681.34;5037282;28;20084;-80
2023/01/23 02:56:10;;;;;;;33.95;19.33;;;;;;;1.30;100.00;102672.06;5028328;28;20077;-80
2023/01/23 03:01:23;;;;;;;35.97;20.13;;;;;;;1.33;100.00;102674.53;5034611;28;20087;-79
2023/01/23 03:03:52;;;;;;;37.40;20.42;;;;;;;1.32;100.00;102662.53;5030958;28;20080;-80
2023/01/23 03:06:19;;;;;;;34.08;19.42;;;;;;;1.39;100.00;102663.19;5041346;28;20072;-80
2023/01/23 03:08:48;;;;;;;36.10;18.98;;;;;;;1.36;100.00;102667.59;5041415;28;20049;-79
2023/01/23 03:11:17;;;;;;;34.22;19.27;;;;;;;1.39;100.00;102662.34;5041812;28;20069;-80
2023/01/23 03:13:45;;;;;;;34.55;19.52;;;;;;;1.34;100.00;102654.75;5039526;28;20072;-81
2023/01/23 03:16:12;;;;;;;32.90;18.58;;;;;;;1.30;100.00;102648.84;5031489;28;20332;-81
2023/01/23 03:18:39;;;;;;;36.15;19.83;;;;;;;1.20;100.00;102657.75;5040433;28;20077;-80
2023/01/23 03:21:07;;;;;;;36.47;20.10;;;;;;;1.10;100.00;102655.47;5048023;28;20054;-81
2023/01/23 03:23:34;;;;;;;36.30;20.38;;;;;;;1.02;100.00;102652.28;5045603;28;20136;-81
2023/01/23 03:26:01;;;;;;;35.22;19.58;;;;;;;0.94;100.00;102653.38;5040287;28;20432;-80
2023/01/23 03:31:15;;;;;;;37.40;21.30;;;;;;;0.88;100.00;102653.56;5041788;28;20065;-80
2023/01/23 03:33:43;;;;;;;35.03;20.35;;;;;;;0.80;100.00;102654.66;5045560;28;20128;-79
2023/01/23 03:36:10;;;;;;;37.95;20.10;;;;;;;0.70;100.00;102656.66;5032115;28;20052;-79
2023/01/23 03:38:37;;;;;;;36.45;20.70;;;;;;;0.72;100.00;102657.44;5041446;28;20053;-81
2023/01/23 03:43:48;;;;;;;38.25;21.60;;;;;;;0.55;100.00;102670.78;5042425;28;20133;-81
2023/01/23 03:46:16;;;;;;;38.88;21.48;;;;;;;0.52;100.00;102677.75;5027116;28;20084;-81
2023/01/23 03:48:43;;;;;;;36.28;20.42;;;;;;;0.49;100.00;102680.41;5037793;28;20133;-81
2023/01/23 03:51:09;;;;;;;38.13;20.90;;;;;;;0.44;100.00;102679.72;5031802;28;20145;-81
2023/01/23 03:53:36;;;;;;;38.58;21.15;;;;;;;0.41;100.00;102688.38;5025398;28;20053;-79
2023/01/23 03:56:03;;;;;;;38.92;21.90;;;;;;;0.37;100.00;102689.34;5029446;28;20108;-79
2023/01/23 03:58:30;;;;;;;38.03;20.83;;;;;;;0.37;100.00;102696.22;5030460;28;20088;-81
2023/01/23 04:00:56;;;;;;;39.95;22.20;;;;;;;0.41;100.00;102700.41;5043228;28;20124;-79
2023/01/23 04:03:24;;;;;;;36.55;21.42;;;;;;;0.48;100.00;102694.16;5045488;28;20111;-80
2023/01/23 04:05:55;;;;;;;37.88;21.63;;;;;;;0.53;100.00;102693.16;5045890;28;20553;-81
2023/01/23 04:08:22;;;;;;;39.60;21.00;;;;;;;0.55;100.00;102698.28;5046067;28;20507;-79
2023/01/23 04:10:49;;;;;;;36.90;21.63;;;;;;;0.55;100.00;102695.69;5045635;28;20057;-79
2023/01/23 04:13:15;;;;;;;36.05;20.70;;;;;;;0.64;100.00;102704.03;5038720;28;20486;-78
2023/01/23 04:15:43;;;;;;;43.55;21.95;;;;;;;0.66;100.00;102704.84;5040155;28;20046;-78
2023/01/23 04:18:09;;;;;;;39.00;20.10;;;;;;;0.66;100.00;102706.56;5046374;28;20049;-78
2023/01/23 04:20:37;;;;;;;38.45;21.52;;;;;;;0.69;100.00;102701.34;5045742;28;20386;-78
2023/01/23 04:23:04;;;;;;;39.30;21.08;;;;;;;0.77;100.00;102706.28;5045065;28;20540;-78
2023/01/23 04:25:30;;;;;;;39.60;20.92;;;;;;;0.80;100.00;102708.78;5045670;28;20045;-78
2023/01/23 04:27:57;;;;;;;36.15;20.25;;;;;;;0.78;100.00;102705.41;5045450;28;20049;-79
2023/01/23 04:30:24;;;;;;;38.85;20.35;;;;;;;0.79;100.00;102702.78;5041952;28;20140;-79
2023/01/23 04:32:50;;;;;;;35.55;19.77;;;;;;;0.76;100.00;102700.28;5042167;28;20050;-79
2023/01/23 04:35:17;;;;;;;35.70;20.08;;;;;;;0.78;100.00;102701.09;5042646;28;20132;-79
2023/01/23 04:37:45;;;;;;;37.60;20.35;;;;;;;0.79;100.00;102697.63;5032632;28;20236;-79
2023/01/23 04:40:12;;;;;;;35.60;19.27;;;;;;;0.78;100.00;102706.25;5042981;28;20081;-79
2023/01/23 04:42:39;;;;;;;37.20;20.13;;;;;;;0.70;100.00;102677.25;5042426;28;20049;-78
2023/01/23 04:45:07;;;;;;;38.97;20.50;;;;;;;0.68;100.00;102688.50;5041832;28;20049;-79
2023/01/23 04:47:33;;;;;;;37.05;20.02;;;;;;;0.61;100.00;102674.94;5032672;28;20101;-79
2023/01/23 04:50:00;;;;;;;36.85;20.00;;;;;;;0.56;100.00;102685.34;5039927;28;20045;-78
2023/01/23 04:52:27;;;;;;;37.95;21.38;;;;;;;0.55;100.00;102682.81;5040691;28;20546;-79
2023/01/23 04:54:55;;;;;;;34.88;19.52;;;;;;;0.55;100.00;102688.81;5043059;28;20049;-79
2023/01/23 04:57:22;;;;;;;38.17;20.92;;;;;;;0.59;100.00;102679.28;5039538;28;20049;-80
2023/01/23 04:59:48;;;;;;;36.40;21.17;;;;;;;0.62;100.00;102685.19;5040612;28;20049;-80
2023/01/23 05:02:15;;;;;;;37.28;20.70;;;;;;;0.65;100.00;102692.00;5039083;28;20109;-79
2023/01/23 05:04:41;;;;;;;35.15;19.55;;;;;;;0.61;100.00;102687.81;5039400;28;20135;-80
2023/01/23 05:07:10;;;;;;;41.92;21.83;;;;;;;0.59;100.00;102698.16;5032529;28;20132;-80
2023/01/23 05:09:37;;;;;;;39.90;21.23;;;;;;;0.57;100.00;102693.94;5040696;28;20508;-81
2023/01/23 05:12:07;;;;;;;37.95;20.75;;;;;;;0.59;100.00;102694.75;5040716;28;20133;-80
2023/01/23 05:14:34;;;;;;;42.30;22.17;;;;;;;0.62;100.00;102694.66;5039151;28;20076;-79
2023/01/23 05:17:01;;;;;;;36.05;21.40;;;;;;;0.57;100.00;102688.78;5033146;28;20510;-80
2023/01/23 05:19:27;;;;;;;37.60;21.35;;;;;;;0.58;100.00;102693.88;5038915;28;20409;-80
2023/01/23 05:21:54;;;;;;;36.47;21.02;;;;;;;0.57;100.00;102691.34;5039185;28;20132;-80
2023/01/23 05:24:20;;;;;;;37.28;21.13;;;;;;;0.58;100.00;102699.03;5040021;28;20124;-79
2023/01/23 05:26:47;;;;;;;34.08;19.85;;;;;;;0.49;100.00;102694.13;5039262;28;20128;-80
2023/01/23 05:29:16;;;;;;;37.63;20.65;;;;;;;0.43;100.00;102683.19;5041306;28;20072;-79
2023/01/23 05:31:43;;;;;;;32.65;19.05;;;;;;;0.34;100.00;102689.41;5036177;28;20060;-79
2023/01/23 05:34:10;;;;;;;34.08;19.75;;;;;;;0.29;100.00;102693.84;5034640;28;20140;-79
2023/01/23 05:36:36;;;;;;;38.17;20.45;;;;;;;0.21;100.00;102704.31;5040891;28;20119;-79
2023/01/23 05:39:03;;;;;;;34.40;20.17;;;;;;;0.17;100.00;102697.56;5042924;28;20133;-79
2023/01/23 05:41:29;;;;;;;35.65;20.67;;;;;;;0.15;100.00;102709.63;5041249;28;20487;-80
2023/01/23 05:43:56;;;;;;;36.72;20.88;;;;;;;0.12;100.00;102714.00;5041634;28;20056;-81
2023/01/23 05:46:24;;;;;;;39.13;21.83;;;;;;;0.03;100.00;102712.50;5031251;28;20129;-80
2023/01/23 05:48:51;;;;;;;36.80;21.00;;;;;;;0.00;100.00;102716.00;5040517;28;20073;-80
2023/01/23 05:51:18;;;;;;;40.95;20.05;;;;;;;0.04;100.00;102710.78;5037565;28;20056;-80
2023/01/23 05:53:45;;;;;;;37.70;20.67;;;;;;;0.01;100.00;102719.41;5023969;28;20125;-80
2023/01/23 05:56:12;;;;;;;36.78;20.13;;;;;;;-0.07;100.00;102705.91;5033553;28;20132;-82
2023/01/23 05:58:38;;;;;;;37.58;20.98;;;;;;;-0.10;100.00;102718.84;5041700;28;20054;-81
2023/01/23 06:01:05;;;;;;;33.13;20.40;;;;;;;-0.19;100.00;102725.06;5034853;28;20077;-81
2023/01/23 06:03:33;;;;;;;35.08;20.02;;;;;;;-0.22;100.00;102729.44;5041883;28;20049;-80
2023/01/23 06:06:00;;;;;;;36.97;20.83;;;;;;;-0.25;100.00;102732.91;5042676;28;20163;-81
2023/01/23 06:08:27;;;;;;;35.13;20.48;;;;;;;-0.29;100.00;102744.16;5043106;28;20045;-82
2023/01/23 06:10:57;;;;;;;37.65;20.67;;;;;;;-0.24;100.00;102741.47;5041923;28;20083;-81
2023/01/23 06:13:23;;;;;;;36.65;20.95;;;;;;;-0.31;100.00;102732.19;5036285;28;20045;-82
2023/01/23 06:15:50;;;;;;;35.65;20.30;;;;;;;-0.34;100.00;102733.13;5034578;28;20117;-81
2023/01/23 06:18:17;;;;;;;36.40;20.48;;;;;;;-0.40;100.00;102736.66;5041936;28;20046;-80
2023/01/23 06:20:45;;;;;;;39.75;21.33;;;;;;;-0.47;100.00;102729.97;5041202;28;20109;-79
2023/01/23 06:23:12;;;;;;;39.35;20.95;;;;;;;-0.54;100.00;102743.03;5041353;28;20085;-80
2023/01/23 06:25:39;;;;;;;36.60;20.33;;;;;;;-0.61;100.00;102734.59;5035965;28;20050;-79
2023/01/23 06:28:06;;;;;;;36.50;19.58;;;;;;;-0.66;100.00;102744.13;5040235;28;20056;-78
2023/01/23 06:30:33;;;;;;;35.38;20.05;;;;;;;-0.72;100.00;102750.25;5038185;28;20073;-80
2023/01/23 06:32:59;;;;;;;37.47;20.95;;;;;;;-0.71;100.00;102748.50;5042465;28;20056;-80
2023/01/23 06:35:26;;;;;;;37.72;21.50;;;;;;;-0.70;100.00;102745.91;5044444;28;20077;-81
2023/01/23 06:37:54;;;;;;;37.78;22.48;;;;;;;-0.60;100.00;102759.44;5032374;28;20088;-81
2023/01/23 06:40:20;;;;;;;35.75;20.63;;;;;;;-0.53;100.00;102755.84;5028990;28;20053;-81
2023/01/23 06:42:47;;;;;;;40.13;22.13;;;;;;;-0.49;100.00;102761.78;5047396;28;20041;-81
2023/01/23 06:45:14;;;;;;;38.53;21.27;;;;;;;-0.42;100.00;102766.72;5048203;28;20053;-81
2023/01/23 06:47:40;;;;;;;38.35;22.17;;;;;;;-0.40;100.00;102770.09;5037791;28;20074;-81
2023/01/23 06:50:08;;;;;;;36.15;20.25;;;;;;;-0.38;100.00;102770.06;5037046;28;20045;-81
2023/01/23 06:52:35;;;;;;;35.67;20.77;;;;;;;-0.39;100.00;102773.53;5043809;28;20133;-81
2023/01/23 06:55:03;;;;;;;37.17;20.23;;;;;;;-0.25;100.00;102786.09;5041760;28;20077;-81
2023/01/23 06:57:30;;;;;;;38.95;21.17;;;;;;;-0.32;100.00;102785.38;5043960;28;20052;-80
2023/01/23 06:59:56;;;;;;;37.50;20.98;;;;;;;-0.28;100.00;102791.31;5040904;28;20053;-80
2023/01/23 07:02:23;;;;;;;36.33;21.42;;;;;;;-0.34;100.00;102787.97;5038170;28;20053;-80
2023/01/23 07:04:49;;;;;;;37.85;20.77;;;;;;;-0.24;100.00;102795.50;5046584;28;20045;-79
2023/01/23 07:07:16;;;;;;;37.80;21.10;;;;;;;-0.22;100.00;102806.59;5040698;28;20085;-80
2023/01/23 07:09:43;;;;;;;40.80;21.85;;;;;;;-0.22;100.00;102798.88;5036713;28;20137;-80
2023/01/23 07:12:11;;;;;;;36.92;20.88;;;;;;;-0.20;100.00;102810.00;5033140;28;20046;-80
2023/01/23 07:14:37;;;;;;;41.17;21.65;;;;;;;-0.11;100.00;102809.81;5024453;28;20074;-80
2023/01/23 07:17:04;;;;;;;36.45;19.65;;;;;;;-0.09;100.00;102810.59;5028293;28;20049;-79
2023/01/23 07:19:31;;;;;;;36.20;20.50;;;;;;;0.00;100.00;102815.56;5040590;28;20038;-80
2023/01/23 07:21:59;;;;;;;38.30;21.17;;;;;;;0.11;100.00;102807.56;5046314;28;20049;-80
2023/01/23 07:24:27;;;;;;;38.58;21.42;;;;;;;0.24;100.00;102821.84;5047404;28;20087;-80
2023/01/23 07:26:53;;;;;;;35.35;20.90;;;;;;;0.27;100.00;102822.63;5044178;28;20045;-80
2023/01/23 07:29:21;;;;;;;31.88;19.52;;;;;;;0.38;100.00;102817.22;5046077;28;20053;-80
2023/01/23 07:31:48;;;;;;;34.72;20.33;;;;;;;0.41;100.00;102824.88;5033490;28;20159;-80
2023/01/23 07:34:15;;;;;;;34.10;19.73;;;;;;;0.44;100.00;102811.06;5044439;28;20069;-80
2023/01/23 07:36:41;;;;;;;34.17;19.05;;;;;;;0.49;100.00;102812.63;5043029;28;20479;-80
2023/01/23 07:39:09;;;;;;;28.85;17.42;;;;;;;0.53;100.00;102814.25;5035932;28;20076;-80
2023/01/23 07:41:36;;;;;;;31.52;18.55;;;;;;;0.53;100.00;102821.13;5043539;28;20081;-80
2023/01/23 07:44:02;;;;;;;28.00;17.13;;;;;;;0.52;100.00;102832.31;5027828;28;20115;-80
2023/01/23 07:46:32;;;;;;;30.02;17.55;;;;;;;0.52;100.00;102832.31;5040765;28;20073;-80
2023/01/23 07:48:59;;;;;;;30.50;17.27;;;;;;;0.56;100.00;102833.94;5041739;28;20049;-80
2023/01/23 07:51:26;;;;;;;28.90;17.42;;;;;;;0.54;100.00;102831.38;5036148;28;20527;-80
2023/01/23 07:53:52;;;;;;;31.13;17.95;;;;;;;0.53;100.00;102834.00;5044306;28;20064;-80
2023/01/23 07:56:19;;;;;;;30.80;18.55;;;;;;;0.57;100.00;102833.88;5040047;28;20042;-80
2023/01/23 07:58:50;;;;;;;39.72;22.38;;;;;;;0.69;100.00;102832.75;5032778;28;20070;-79
2023/01/23 08:01:18;;;;;;;31.33;17.92;;;;;;;0.71;100.00;102832.72;5032330;28;20053;-81
2023/01/23 08:03:46;;;;;;;30.30;18.17;;;;;;;0.71;100.00;102836.13;5036339;28;20057;-80
2023/01/23 08:06:14;;;;;;;31.73;18.15;;;;;;;0.75;100.00;102839.47;5028680;28;20042;-81
2023/01/23 08:08:41;;;;;;;29.88;17.63;;;;;;;0.83;100.00;102845.28;5041901;28;20132;-80
2023/01/23 08:11:13;;;;;;;39.55;19.88;;;;;;;0.82;100.00;102841.03;5040304;28;20114;-80
2023/01/23 08:13:40;;;;;;;32.13;18.25;;;;;;;0.87;100.00;102842.59;5039246;28;20060;-80
2023/01/23 08:16:07;;;;;;;31.58;19.33;;;;;;;0.93;100.00;102845.00;5046153;28;20049;-80
2023/01/23 08:18:34;;;;;;;29.42;18.00;;;;;;;0.98;100.00;102845.72;5039253;28;20069;-80
2023/01/23 08:21:03;;;;;;;27.25;17.77;;;;;;;0.98;100.00;102848.28;5045365;28;20100;-80
2023/01/23 08:23:32;;;;;;;32.15;18.73;;;;;;;0.96;100.00;102850.06;5036292;28;20064;-78
2023/01/23 08:26:01;;;;;;;31.88;19.55;;;;;;;1.06;100.00;102855.81;5032366;28;20440;-78
2023/01/23 08:28:28;;;;;;;28.83;18.35;;;;;;;1.14;100.00;102847.88;5042529;28;20072;-79
2023/01/23 08:30:56;;;;;;;29.85;18.15;;;;;;;1.17;100.00;102837.50;5041933;28;20049;-79
2023/01/23 08:33:22;;;;;;;34.13;17.95;;;;;;;1.26;100.00;102842.41;5041168;28;20117;-79
2023/01/23 08:35:50;;;;;;;35.33;20.27;;;;;;;1.30;100.00;102842.28;5045069;28;20064;-79
2023/01/23 08:38:18;;;;;;;33.95;20.15;;;;;;;1.30;100.00;102841.44;5044345;28;20037;-78
2023/01/23 08:40:45;;;;;;;34.60;19.48;;;;;;;1.36;100.00;102840.41;5042318;28;20080;-78
2023/01/23 08:43:12;;;;;;;34.05;20.40;;;;;;;1.34;100.00;102840.47;5044056;28;20471;-79
2023/01/23 08:45:40;;;;;;;31.15;19.15;;;;;;;1.41;100.00;102844.56;5040799;28;20049;-79
2023/01/23 08:48:06;;;;;;;33.03;19.60;;;;;;;1.41;100.00;102847.16;5038039;28;20168;-79
2023/01/23 08:50:40;;;;;;;34.03;19.40;;;;;;;1.35;100.00;102842.16;5034876;28;20084;-78
2023/01/23 08:53:07;;;;;;;33.38;19.58;;;;;;;1.29;100.00;102832.00;5038809;28;20049;-80
2023/01/23 08:55:37;;;;;;;31.25;19.20;;;;;;;1.40;100.00;102845.44;5030712;28;20068;-78
2023/01/23 08:58:06;;;;;;;37.10;21.20;;;;;;;1.32;100.00;102837.09;5037309;28;20052;-80
2023/01/23 09:00:33;;;;;;;34.40;20.02;;;;;;;1.48;100.00;102855.53;5031703;28;20049;-79
2023/01/23 09:03:00;;;;;;;33.45;20.33;;;;;;;1.40;100.00;102849.75;5025142;28;20061;-77
2023/01/23 09:05:27;;;;;;;31.77;19.40;;;;;;;1.49;100.00;102858.06;5030506;28;20049;-79
2023/01/23 09:07:54;;;;;;;31.50;19.05;;;;;;;1.54;100.00;102858.78;5032196;28;20045;-78
2023/01/23 09:10:21;;;;;;;32.55;19.08;;;;;;;1.57;100.00;102863.00;5027130;28;20132;-77
2023/01/23 09:12:50;;;;;;;36.20;21.25;;;;;;;1.58;100.00;102862.97;5040528;28;20076;-79
2023/01/23 09:15:17;;;;;;;33.55;20.50;;;;;;;1.68;100.00;102868.72;5043828;28;20068;-80
2023/01/23 09:17:44;;;;;;;34.33;20.13;;;;;;;1.59;100.00;102869.81;5045051;28;20064;-79
2023/01/23 09:20:11;;;;;;;36.83;21.33;;;;;;;1.66;100.00;102870.50;5038870;28;20046;-80
2023/01/23 09:22:38;;;;;;;33.90;21.35;;;;;;;1.74;100.00;102872.88;5035894;28;20086;-80
2023/01/23 09:25:05;;;;;;;36.17;20.77;;;;;;;1.85;100.00;102868.25;5040784;28;20052;-80
2023/01/23 09:27:34;;;;;;;36.80;21.50;;;;;;;1.80;100.00;102875.28;5036208;28;20129;-79
2023/01/23 09:30:02;;;;;;;36.13;20.60;;;;;;;1.73;100.00;102876.34;5038176;28;20088;-79
2023/01/23 09:32:28;;;;;;;33.47;20.08;;;;;;;1.83;100.00;102877.75;5042934;28;20072;-80
2023/01/23 09:34:55;;;;;;;34.70;20.90;;;;;;;1.85;100.00;102881.16;5040815;28;20033;-80
2023/01/23 09:37:24;;;;;;;32.85;20.27;;;;;;;1.90;100.00;102890.41;5033355;28;20066;-81
2023/01/23 09:39:51;;;;;;;35.33;20.73;;;;;;;1.88;100.00;102888.81;5043074;28;20049;-80
2023/01/23 09:42:20;;;;;;;34.20;18.92;;;;;;;1.98;100.00;102895.38;5045361;28;20102;-80
2023/01/23 09:44:52;;;;;;;31.65;19.63;;;;;;;1.96;100.00;102891.97;5046059;28;20114;-82
2023/01/23 09:47:26;;;;;;;38.53;20.38;;;;;;;1.81;100.00;102884.72;5039647;28;20076;-81
2023/01/23 09:50:44;;;;;;;33.33;19.63;;;;;;;1.81;100.00;102866.63;5037421;28;20121;-81
2023/01/23 09:53:26;;;;;;;34.67;19.50;;;;;;;1.88;100.00;102884.50;5039112;28;20065;-81
2023/01/23 09:56:17;;;;;;;41.65;21.80;;;;;;;1.95;100.00;102895.44;5034508;28;20547;-81
2023/01/23 09:59:14;;;;;;;37.40;20.02;;;;;;;2.07;100.00;102892.50;5024946;28;20080;-80
2023/01/23 10:01:47;;;;;;;40.55;20.90;;;;;;;1.96;100.00;102876.47;5041957;28;20050;-80
2023/01/23 10:04:18;;;;;;;30.50;18.90;;;;;;;2.05;100.00;102898.63;5039513;28;20095;-79
2023/01/23 10:07:16;;;;;;;34.70;21.27;;;;;;;2.07;100.00;102882.19;5036443;28;20053;-81
2023/01/23 10:10:01;;;;;;;34.20;20.50;;;;;;;2.09;100.00;102893.31;5037085;28;20053;-80
2023/01/23 10:12:41;;;;;;;33.35;18.90;;;;;;;2.27;100.00;102889.34;5038091;28;20046;-80
2023/01/23 10:15:26;;;;;;;33.38;18.90;;;;;;;2.21;100.00;102892.09;5041779;28;20079;-81
2023/01/23 10:18:06;;;;;;;32.28;19.08;;;;;;;2.14;100.00;102883.69;5046234;28;20050;-79
2023/01/23 10:20:57;;;;;;;36.08;19.92;;;;;;;2.10;100.00;102878.66;5034641;28;20041;-80
2023/01/23 10:23:50;;;;;;;31.35;19.60;;;;;;;2.24;100.00;102892.84;5045486;28;20469;-81
2023/01/23 10:26:22;;;;;;;32.20;18.70;;;;;;;2.19;100.00;102901.63;5041454;28;20053;-80
2023/01/23 10:28:55;;;;;;;29.30;18.52;;;;;;;2.22;100.00;102899.81;5046220;28;20053;-80
2023/01/23 10:31:44;;;;;;;32.70;18.85;;;;;;;2.25;100.00;102912.63;5034318;28;20042;-80
2023/01/23 10:34:22;;;;;;;29.73;19.10;;;;;;;2.19;100.00;102901.63;5044238;28;20103;-80
2023/01/23 10:37:07;;;;;;;31.92;19.08;;;;;;;2.35;100.00;102909.75;5045391;28;20496;-79
2023/01/23 10:39:55;;;;;;;30.35;18.00;;;;;;;2.23;99.82;102873.06;5042472;28;20053;-79
2023/01/23 10:42:25;;;;;;;33.05;18.70;;;;;;;2.43;99.62;102913.78;5037044;28;20069;-79
2023/01/23 10:44:52;;;;;;;30.67;18.50;;;;;;;2.37;99.80;102887.28;5036005;28;20057;-79
2023/01/23 10:47:29;;;;;;;28.98;17.67;;;;;;;2.42;99.60;102882.81;5047327;28;20488;-80
2023/01/23 10:49:57;;;;;;;33.53;19.02;;;;;;;2.46;98.75;102895.59;5043909;28;20105;-79
2023/01/23 10:52:35;;;;;;;29.95;17.67;;;;;;;2.42;99.08;102900.91;5035513;28;20050;-79
2023/01/23 10:55:03;;;;;;;27.55;16.85;;;;;;;2.45;98.66;102900.81;5037773;28;20337;-80
2023/01/23 10:57:35;;;;;;;30.08;17.67;;;;;;;2.29;98.33;102875.47;5046753;28;20045;-81
2023/01/23 11:00:10;;;;;;;27.13;17.17;;;;;;;2.44;97.60;102901.69;5027440;28;20046;-79
2023/01/23 11:02:47;;;;;;;28.35;17.25;;;;;;;2.48;97.19;102883.47;5030686;28;20125;-85
2023/01/23 11:05:38;;;;;;;25.30;16.17;;;;;;;2.33;96.83;102882.25;5046858;28;20053;-81
2023/01/23 11:08:26;;;;;;;28.58;18.00;;;;;;;2.44;96.72;102883.63;5039209;28;20069;-80
2023/01/23 11:11:11;;;;;;;29.20;16.35;;;;;;;2.66;96.61;102903.56;5037559;28;20046;-79
2023/01/23 11:13:39;;;;;;;28.17;16.63;;;;;;;2.69;96.18;102881.09;5042802;28;20046;-80
2023/01/23 11:16:08;;;;;;;27.73;17.20;;;;;;;2.54;96.63;102869.50;5038585;28;20042;-80
2023/01/23 11:18:44;;;;;;;30.83;17.83;;;;;;;2.51;95.79;102869.59;5033072;28;20054;-80
2023/01/23 11:21:21;;;;;;;29.30;17.13;;;;;;;2.61;95.41;102852.91;5042117;28;20088;-80
2023/01/23 11:24:18;;;;;;;25.67;15.80;;;;;;;3.02;95.82;102876.53;5037104;28;20076;-80
2023/01/23 11:26:48;;;;;;;31.60;16.70;;;;;;;2.97;95.03;102874.94;5031766;28;20100;-79